Pagina principale
METAR-TAF:

METAR-TAF

Aeroporti :

Aeroporto di Madrid-Cuatro Vientos

Madrid-Cuatro Vientos, Spagna

latitudine: 40-23N, longitudine: 003-47W, altezza: 690 m

Osservazione

Il bollettino è stato emesso 31 minuti fa, alle 06:00 UTC
Vento 3 kt da nord/nord-est, variando fra nord e est
Temperature 21°C
Umidità 46%
Pressione 1025 hPa
Visibilità 10 km o più
nessuna nube inferiore a 1500 m e nessun cumulonembo

METAR: LEVS 230600Z 03003KT 350V080 CAVOK 21/09 Q1025

Ora: 08:31 (06:31 UTC)

Previsione

Il bollettino è stato emesso 1 ora e 31 minuti fa, alle 05:00 UTC
Previsione valida dal 23 alle 06 UTC al 23 alle 15 UTC
Vento 4 kt da direzioni variabili
Visibilità 10 km o più
nessuna nube inferiore a 1500 m e nessun cumulonembo
Probabilità 40% :
Temporaneamente
dal 23 alle 06 UTC al 23 alle 08 UTC
Vento 7 kt da nord/nord-est

TAF: LEVS 230500Z 2306/2315 VRB04KT CAVOK PROB40 TEMPO 2306/2308 03007KT

Osservazioni e previsioni meteorologiche di più di 4000 aeroporti (messaggi METAR e TAF).

Le stazioni disponibili sono rappresentate dai dischi gialli e rossi sulla carta.

Puntare il mouse per vedere il nome della stazione.

Clicca sopra per visualizzare le osservazioni e previsioni meteorologiche.

Per cambiare la mappa : fare clic sui pulsanti verdi con una croce nera per ingrandire, il pulsante verde con un trattino per diminuire, o sulla freccia verde per le mappe adiacenti.


METAR-TAF: